Time;durP1;ratioP1;P1;durP2;ratioP2;P2;SDS_P1;SDS_P2;PMS_P1;PMS_P2;Temp;Humidity;BMP_temperature;BMP_pressure;BME280_temperature;BME280_humidity;BME280_pressure;Samples;Min_cycle;Max_cycle;Signal;HPM_P1;HPM_P2
2023/04/16 00:00:12;;;;;;;3.30;3.00;;;;;;;5.84;100.00;96120.53;5017577;28;101946;-63
2023/04/16 00:02:40;;;;;;;3.70;3.40;;;;;;;5.85;100.00;96122.91;5009931;28;104022;-63
2023/04/16 00:05:26;;;;;;;4.37;4.00;;;;;;;5.86;100.00;96113.19;5008511;28;105335;-63
2023/04/16 00:07:54;;;;;;;3.90;3.60;;;;;;;5.85;100.00;96115.00;5013783;28;101786;-63
2023/04/16 00:10:22;;;;;;;3.60;3.37;;;;;;;5.83;100.00;96118.94;5009674;28;105182;-63
2023/04/16 00:12:50;;;;;;;3.73;3.43;;;;;;;5.83;100.00;96116.28;5010040;28;102041;-63
2023/04/16 00:15:17;;;;;;;3.43;3.13;;;;;;;5.85;100.00;96117.63;5010041;28;105150;-63
2023/04/16 00:17:44;;;;;;;3.50;3.30;;;;;;;5.86;100.00;96121.09;5009139;28;104997;-63
2023/04/16 00:20:11;;;;;;;4.20;3.90;;;;;;;5.86;100.00;96123.72;5021790;28;101834;-63
2023/04/16 00:22:39;;;;;;;3.83;3.13;;;;;;;5.88;100.00;96126.94;5014790;28;104990;-63
2023/04/16 00:25:19;;;;;;;3.60;3.30;;;;;;;5.85;100.00;96132.69;5010275;28;104047;-64
2023/04/16 00:27:46;;;;;;;4.73;4.33;;;;;;;5.82;100.00;96128.66;5019667;28;101875;-63
2023/04/16 00:30:13;;;;;;;3.80;3.50;;;;;;;5.83;100.00;96129.47;5018132;28;104805;-63
2023/04/16 00:32:40;;;;;;;4.37;4.07;;;;;;;5.81;100.00;96131.53;5009682;28;101865;-63
2023/04/16 00:35:08;;;;;;;4.10;3.80;;;;;;;5.81;100.00;96131.53;5009777;28;104708;-63
2023/04/16 00:37:35;;;;;;;4.00;3.60;;;;;;;5.80;100.00;96135.19;5008912;28;105508;-63
2023/04/16 00:40:04;;;;;;;3.60;3.30;;;;;;;5.77;100.00;96138.25;5009470;28;101989;-63
2023/04/16 00:42:31;;;;;;;2.93;2.73;;;;;;;5.80;100.00;96143.09;5019549;28;105308;-63
2023/04/16 00:45:00;;;;;;;2.67;2.50;;;;;;;5.77;100.00;96135.59;5029015;28;104957;-63
2023/04/16 00:47:27;;;;;;;2.50;2.30;;;;;;;5.72;100.00;96141.56;5027767;28;101783;-63
2023/04/16 00:49:54;;;;;;;2.57;2.47;;;;;;;5.70;100.00;96140.19;5028610;28;105178;-63
2023/04/16 00:52:21;;;;;;;2.20;2.10;;;;;;;5.75;100.00;96140.31;5023945;28;105077;-63
2023/04/16 00:54:50;;;;;;;3.17;2.97;;;;;;;5.74;100.00;96136.84;5009498;28;104874;-63
2023/04/16 00:57:19;;;;;;;2.60;2.40;;;;;;;5.71;100.00;96136.50;5009856;28;104353;-63
2023/04/16 00:59:46;;;;;;;2.67;2.33;;;;;;;5.72;100.00;96132.88;5009107;28;101853;-63
2023/04/16 01:02:13;;;;;;;3.10;2.60;;;;;;;5.77;100.00;96135.59;5009256;28;105260;-63
2023/04/16 01:04:45;;;;;;;2.73;2.53;;;;;;;5.77;100.00;96132.97;5008797;28;105059;-63
2023/04/16 01:07:13;;;;;;;2.80;2.60;;;;;;;5.71;100.00;96128.59;5009244;28;101814;-63
2023/04/16 01:09:41;;;;;;;2.50;2.30;;;;;;;5.71;100.00;96134.69;5017556;28;105271;-63
2023/04/16 01:12:10;;;;;;;2.40;2.30;;;;;;;5.71;100.00;96125.97;5031863;28;105061;-63
2023/04/16 01:14:43;;;;;;;2.70;2.50;;;;;;;5.76;100.00;96136.63;5021035;28;104190;-63
2023/04/16 01:17:12;;;;;;;1.97;1.87;;;;;;;5.70;100.00;96135.72;5008229;28;105190;-63
2023/04/16 01:19:39;;;;;;;2.23;2.10;;;;;;;5.79;100.00;96138.84;5009975;28;101919;-63
2023/04/16 01:22:07;;;;;;;2.20;2.10;;;;;;;5.72;100.00;96141.56;5008505;28;105382;-63
2023/04/16 01:24:35;;;;;;;2.20;2.10;;;;;;;5.64;100.00;96141.91;5008361;28;104995;-63
2023/04/16 01:27:02;;;;;;;2.27;2.17;;;;;;;5.68;100.00;96142.25;5009116;28;101783;-63
2023/04/16 01:29:29;;;;;;;2.37;2.27;;;;;;;5.69;100.00;96138.59;5015838;28;104960;-63
2023/04/16 01:31:59;;;;;;;2.40;2.30;;;;;;;5.59;100.00;96139.13;5028088;28;105425;-63
2023/04/16 01:34:39;;;;;;;2.60;2.40;;;;;;;5.62;100.00;96143.94;5030451;28;101869;-63
2023/04/16 01:37:07;;;;;;;2.00;1.90;;;;;;;5.57;100.00;96146.44;5028577;28;105512;-63
2023/04/16 01:39:34;;;;;;;2.57;2.37;;;;;;;5.58;100.00;96144.63;5028474;28;101921;-63
2023/04/16 01:42:01;;;;;;;2.20;2.10;;;;;;;5.61;100.00;96147.63;5025806;28;105171;-63
2023/04/16 01:44:52;;;;;;;2.13;2.03;;;;;;;5.57;100.00;96141.19;5014089;28;105057;-63
2023/04/16 01:47:21;;;;;;;2.57;2.37;;;;;;;5.60;100.00;96145.19;5028442;28;101850;-63
2023/04/16 01:49:49;;;;;;;2.23;2.13;;;;;;;5.56;100.00;96142.22;5028779;28;105376;-63
2023/04/16 01:52:17;;;;;;;2.20;2.00;;;;;;;5.59;100.00;96143.59;5027656;28;105556;-63
2023/04/16 01:55:06;;;;;;;2.20;2.10;;;;;;;5.56;100.00;96144.06;5020322;28;101831;-63
2023/04/16 01:57:33;;;;;;;2.30;2.10;;;;;;;5.53;100.00;96144.50;5031515;28;105265;-63
2023/04/16 02:00:00;;;;;;;2.00;1.90;;;;;;;5.53;100.00;96149.78;5028518;28;101952;-63
2023/04/16 02:02:30;;;;;;;3.37;2.27;;;;;;;5.56;100.00;96149.34;5027817;28;105165;-63
2023/04/16 02:05:08;;;;;;;2.43;2.23;;;;;;;5.55;100.00;96140.59;5017501;28;105252;-63
2023/04/16 02:07:37;;;;;;;2.33;2.23;;;;;;;5.50;100.00;96142.28;5008447;28;101783;-63
2023/04/16 02:10:05;;;;;;;2.57;2.33;;;;;;;5.53;100.00;96144.50;5019118;28;105256;-63
2023/04/16 02:12:34;;;;;;;2.17;2.07;;;;;;;5.51;100.00;96138.66;5027923;28;105099;-63
2023/04/16 02:18:35;;;;;;;1.90;1.80;;;;;;;5.49;100.00;96156.50;5021758;28;104783;-63
2023/04/16 02:21:02;;;;;;;2.13;2.03;;;;;;;5.51;100.00;96157.13;4990678;28;105177;-63
2023/04/16 02:23:46;;;;;;;2.13;2.03;;;;;;;5.50;100.00;96160.75;5040932;27;105388;-63
2023/04/16 02:26:13;;;;;;;2.10;1.90;;;;;;;5.49;100.00;96165.25;5041500;27;105531;-63
2023/04/16 02:28:41;;;;;;;2.00;1.90;;;;;;;5.53;100.00;96160.31;5010343;28;102307;-63
2023/04/16 02:31:10;;;;;;;2.13;2.03;;;;;;;5.52;100.00;96164.00;5011611;28;104599;-63
2023/04/16 02:34:05;;;;;;;1.90;1.80;;;;;;;5.47;100.00;96158.59;5010979;28;105295;-63
2023/04/16 02:36:34;;;;;;;2.13;2.03;;;;;;;5.46;100.00;96162.25;5011702;28;101755;-63
2023/04/16 02:39:02;;;;;;;2.00;1.90;;;;;;;5.51;100.00;96168.44;5029839;28;104573;-63
2023/04/16 02:41:29;;;;;;;2.10;2.00;;;;;;;5.51;100.00;96159.75;5031021;28;105164;-63
2023/04/16 02:44:08;;;;;;;2.17;2.07;;;;;;;5.51;100.00;96160.53;5020069;28;101866;-63
2023/04/16 02:46:36;;;;;;;2.40;2.20;;;;;;;5.47;100.00;96163.84;5030910;28;105296;-63
2023/04/16 02:49:03;;;;;;;2.37;2.27;;;;;;;5.53;100.00;96160.31;5029863;28;101898;-63
2023/04/16 02:51:30;;;;;;;2.50;2.37;;;;;;;5.48;100.00;96162.81;5031371;28;105050;-63
2023/04/16 02:54:12;;;;;;;2.13;2.03;;;;;;;5.47;100.00;96167.31;5026899;28;105798;-63
2023/04/16 02:56:39;;;;;;;2.30;2.20;;;;;;;5.47;100.00;96164.69;5011294;28;101813;-63
2023/04/16 02:59:06;;;;;;;2.33;2.23;;;;;;;5.46;100.00;96164.88;5011099;28;105285;-63
2023/04/16 03:01:33;;;;;;;2.20;2.10;;;;;;;5.48;100.00;96168.09;5010616;28;105549;-63
2023/04/16 03:04:02;;;;;;;2.40;2.30;;;;;;;5.48;100.00;96157.53;5012269;28;102036;-63
2023/04/16 03:06:30;;;;;;;2.67;2.47;;;;;;;5.43;100.00;96166.13;5027639;28;104807;-63
2023/04/16 03:08:57;;;;;;;1.90;1.80;;;;;;;5.50;100.00;96166.03;5031672;27;101952;-63
2023/04/16 03:11:25;;;;;;;2.17;2.07;;;;;;;5.45;100.00;96168.56;5031042;28;104986;-63
2023/04/16 03:13:56;;;;;;;2.13;2.03;;;;;;;5.47;100.00;96166.50;5027403;28;105403;-63
2023/04/16 03:16:23;;;;;;;1.77;1.70;;;;;;;5.47;100.00;96171.78;5011010;28;101762;-63
2023/04/16 03:18:50;;;;;;;2.90;2.73;;;;;;;5.48;100.00;96173.38;5010801;28;104909;-63
2023/04/16 03:21:17;;;;;;;1.77;1.67;;;;;;;5.53;100.00;96186.69;5009898;28;105588;-63
2023/04/16 03:23:52;;;;;;;2.00;1.90;;;;;;;5.50;100.00;96189.75;5010833;28;101853;-64
2023/04/16 03:26:19;;;;;;;2.13;2.03;;;;;;;5.51;100.00;96186.13;5013767;28;105293;-64
2023/04/16 03:28:48;;;;;;;2.20;2.10;;;;;;;5.52;100.00;96190.38;5011624;28;102056;-63
2023/04/16 03:31:16;;;;;;;2.17;2.07;;;;;;;5.53;100.00;96191.97;5010726;28;105261;-63
2023/04/16 03:34:35;;;;;;;2.07;1.97;;;;;;;5.55;100.00;96195.19;5011086;28;105377;-63
2023/04/16 03:37:04;;;;;;;2.03;1.93;;;;;;;5.55;100.00;96203.09;5014761;28;101921;-63
2023/04/16 03:39:31;;;;;;;2.10;2.00;;;;;;;5.53;100.00;96200.69;5030004;27;105463;-63
2023/04/16 03:41:58;;;;;;;1.80;1.70;;;;;;;5.52;100.00;96200.91;5027811;28;105017;-63
2023/04/16 03:44:59;;;;;;;1.97;1.87;;;;;;;5.53;100.00;96197.25;5030739;28;102310;-64
2023/04/16 03:47:28;;;;;;;2.10;2.00;;;;;;;5.56;100.00;96202.88;5030282;28;105211;-63
2023/04/16 03:50:00;;;;;;;2.00;1.90;;;;;;;5.56;100.00;96204.72;5033477;28;104946;-63
2023/04/16 03:52:28;;;;;;;2.00;1.90;;;;;;;5.56;100.00;96202.09;5028826;28;105368;-63
2023/04/16 03:55:34;;;;;;;2.30;2.10;;;;;;;5.56;100.00;96202.09;5029525;28;105243;-63
2023/04/16 03:58:03;;;;;;;3.40;1.97;;;;;;;5.59;100.00;96209.53;5023319;28;101888;-63
2023/04/16 04:00:33;;;;;;;1.40;1.40;;;;;;;5.58;100.00;96203.47;5010215;28;105195;-63
2023/04/16 04:03:15;;;;;;;1.37;1.37;;;;;;;5.57;100.00;96206.31;5009687;28;104978;-63
2023/04/16 04:05:44;;;;;;;1.53;1.43;;;;;;;5.61;100.00;96204.81;5010380;28;101790;-63
2023/04/16 04:08:13;;;;;;;1.80;1.70;;;;;;;5.58;100.00;96197.38;5028810;28;104818;-63
2023/04/16 04:10:41;;;;;;;1.10;1.10;;;;;;;5.58;100.00;96207.94;5029432;28;105136;-63
2023/04/16 04:13:11;;;;;;;1.27;1.27;;;;;;;5.55;100.00;96211.81;5014819;28;101938;-63
2023/04/16 04:15:41;;;;;;;1.50;1.50;;;;;;;5.59;100.00;96212.16;5009585;28;104952;-63
2023/04/16 04:18:10;;;;;;;1.00;1.00;;;;;;;5.56;100.00;96210.00;5027460;28;101854;-63
2023/04/16 04:20:39;;;;;;;1.23;1.23;;;;;;;5.56;100.00;96207.34;5029947;28;105307;-63
2023/04/16 04:23:08;;;;;;;1.00;1.00;;;;;;;5.55;100.00;96211.00;5043566;27;105783;-64
2023/04/16 04:25:35;;;;;;;1.07;1.07;;;;;;;5.56;100.00;96208.16;5010250;28;102155;-64
2023/04/16 04:28:02;;;;;;;1.10;1.10;;;;;;;5.60;100.00;96213.78;5009795;28;105197;-63
2023/04/16 04:30:29;;;;;;;1.00;1.00;;;;;;;5.61;100.00;96212.75;5009298;28;103628;-63
2023/04/16 04:33:12;;;;;;;1.10;1.10;;;;;;;5.60;100.00;96224.31;5026637;28;102095;-63
2023/04/16 04:35:39;;;;;;;1.10;1.10;;;;;;;5.64;100.00;96212.31;5014121;28;105228;-63
2023/04/16 04:38:06;;;;;;;0.97;0.97;;;;;;;5.61;100.00;96212.75;5029845;28;101833;-63
2023/04/16 04:40:33;;;;;;;1.13;0.80;;;;;;;5.62;100.00;96230.19;5028195;28;104952;-63
2023/04/16 04:43:21;;;;;;;0.70;0.70;;;;;;;5.62;100.00;96235.47;5009047;28;105536;-64
2023/04/16 04:45:49;;;;;;;0.67;0.67;;;;;;;5.55;100.00;96234.75;5009462;28;101847;-63
2023/04/16 04:48:17;;;;;;;0.70;0.70;;;;;;;5.59;100.00;96238.53;5009382;28;105670;-63
2023/04/16 04:50:46;;;;;;;0.60;0.60;;;;;;;5.57;100.00;96244.03;5009707;28;105031;-63
2023/04/16 04:53:36;;;;;;;0.50;0.50;;;;;;;5.58;100.00;96245.69;5009232;28;102087;-63
2023/04/16 04:56:05;;;;;;;0.70;0.70;;;;;;;5.58;100.00;96250.13;5028887;28;105004;-63
2023/04/16 04:58:33;;;;;;;0.70;0.70;;;;;;;5.60;100.00;96250.69;5031707;28;105096;-63
2023/04/16 05:01:00;;;;;;;0.60;0.60;;;;;;;5.58;100.00;96256.22;5029209;28;105479;-63
2023/04/16 05:03:32;;;;;;;0.50;0.50;;;;;;;5.59;100.00;96252.56;5028527;28;105572;-63
2023/04/16 05:06:00;;;;;;;0.50;0.50;;;;;;;5.61;100.00;96252.31;5020207;28;101846;-64
2023/04/16 05:08:27;;;;;;;0.70;0.70;;;;;;;5.61;100.00;96263.69;5009221;28;105298;-63
2023/04/16 05:10:54;;;;;;;0.80;0.80;;;;;;;5.64;100.00;96267.69;5013994;28;105831;-63
2023/04/16 05:13:25;;;;;;;0.60;0.60;;;;;;;5.68;100.00;96266.22;5028676;28;101910;-63
2023/04/16 05:15:52;;;;;;;0.60;0.60;;;;;;;5.69;100.00;96273.94;5009131;28;105142;-63
2023/04/16 05:18:19;;;;;;;0.80;0.80;;;;;;;5.73;100.00;96276.94;5011755;28;105746;-63
2023/04/16 05:20:47;;;;;;;0.90;0.90;;;;;;;5.71;100.00;96273.69;5028253;28;102893;-63
2023/04/16 05:23:15;;;;;;;0.50;0.50;;;;;;;5.69;100.00;96270.47;5008385;28;105034;-63
2023/04/16 05:25:42;;;;;;;0.70;0.70;;;;;;;5.71;100.00;96274.50;5009152;28;101784;-63
2023/04/16 05:28:10;;;;;;;0.50;0.50;;;;;;;5.80;100.00;96277.66;5008789;28;105604;-63
2023/04/16 05:30:36;;;;;;;0.50;0.50;;;;;;;5.80;100.00;96277.66;5008325;28;105330;-63
2023/04/16 05:33:04;;;;;;;0.60;0.60;;;;;;;5.83;100.00;96282.50;5009125;28;101925;-63
2023/04/16 05:35:31;;;;;;;0.77;0.77;;;;;;;5.83;100.00;96280.66;5009052;28;105014;-63
2023/04/16 05:37:59;;;;;;;0.90;0.90;;;;;;;5.84;100.00;96290.19;5008563;28;105354;-63
2023/04/16 05:40:27;;;;;;;0.60;0.60;;;;;;;5.80;100.00;96288.22;5014114;28;102044;-63
2023/04/16 05:42:54;;;;;;;0.50;0.50;;;;;;;5.84;100.00;96289.41;5028309;28;105649;-63
2023/04/16 05:45:21;;;;;;;0.60;0.60;;;;;;;5.85;100.00;96293.66;5028646;28;101878;-63
2023/04/16 05:47:48;;;;;;;0.60;0.60;;;;;;;5.88;100.00;96291.34;5028579;28;105495;-63
2023/04/16 05:50:15;;;;;;;0.70;0.70;;;;;;;5.86;100.00;96289.97;5028183;28;105744;-63
2023/04/16 05:52:44;;;;;;;0.60;0.60;;;;;;;5.88;100.00;96287.91;5029839;28;101951;-63
2023/04/16 05:55:49;;;;;;;0.60;0.60;;;;;;;5.85;100.00;96283.09;5026249;28;103660;-63
2023/04/16 05:58:18;;;;;;;0.60;0.60;;;;;;;5.89;100.00;96286.91;5021804;28;105931;-66
2023/04/16 06:00:45;;;;;;;0.90;0.90;;;;;;;5.89;100.00;96287.69;5024817;28;102124;-70
2023/04/16 06:03:18;;;;;;;0.50;0.50;;;;;;;5.86;100.00;96293.44;5011790;28;105634;-66
2023/04/16 06:05:45;;;;;;;0.33;0.33;;;;;;;5.94;100.00;96292.31;5027148;28;101908;-66
2023/04/16 06:08:12;;;;;;;0.70;0.70;;;;;;;5.98;100.00;96291.63;5032131;28;105099;-64
2023/04/16 06:10:40;;;;;;;0.60;0.60;;;;;;;5.98;100.00;96293.44;5029555;28;105876;-65
2023/04/16 06:13:09;;;;;;;0.60;0.60;;;;;;;6.00;100.00;96301.97;5011822;28;102271;-65
2023/04/16 06:15:37;;;;;;;0.60;0.60;;;;;;;6.01;100.00;96296.44;5024297;28;104919;-65
2023/04/16 06:18:04;;;;;;;0.50;0.50;;;;;;;6.03;100.00;96304.16;5031175;28;105874;-65
2023/04/16 06:20:35;;;;;;;0.40;0.40;;;;;;;6.06;100.00;96286.03;5031724;28;101875;-65
2023/04/16 06:23:03;;;;;;;0.40;0.40;;;;;;;6.05;100.00;96291.56;5031511;28;105172;-65
2023/04/16 06:25:30;;;;;;;0.60;0.50;;;;;;;6.12;100.00;96295.69;5036067;28;103436;-65
2023/04/16 06:27:57;;;;;;;0.50;0.50;;;;;;;6.15;100.00;96294.44;5031561;28;104786;-65
2023/04/16 06:30:23;;;;;;;0.40;0.40;;;;;;;6.08;100.00;96291.09;5032607;27;102541;-65
2023/04/16 06:32:52;;;;;;;0.53;0.40;;;;;;;6.07;100.00;96300.84;5031618;28;101942;-65
2023/04/16 06:35:20;;;;;;;0.33;0.33;;;;;;;6.06;100.00;96311.63;5031534;28;105556;-65
2023/04/16 06:37:54;;;;;;;0.30;0.30;;;;;;;6.11;100.00;96311.78;5030947;28;105377;-65
2023/04/16 06:40:22;;;;;;;0.30;0.30;;;;;;;6.14;100.00;96306.84;5029862;28;102039;-65
2023/04/16 06:42:49;;;;;;;0.40;0.40;;;;;;;6.05;100.00;96316.09;5031326;28;105204;-65
2023/04/16 06:45:20;;;;;;;0.60;0.60;;;;;;;6.06;100.00;96309.00;5030901;28;105342;-65
2023/04/16 06:48:07;;;;;;;0.50;0.43;;;;;;;6.05;100.00;96318.72;5030352;28;101664;-65
2023/04/16 06:50:34;;;;;;;0.50;0.50;;;;;;;6.05;100.00;96313.47;5019688;28;102533;-65
2023/04/16 06:53:08;;;;;;;0.40;0.40;;;;;;;6.10;100.00;96310.13;5032859;27;101819;-64
2023/04/16 06:55:35;;;;;;;0.50;0.50;;;;;;;6.08;100.00;96304.28;5032616;27;102529;-63
2023/04/16 06:58:01;;;;;;;0.50;0.50;;;;;;;6.16;100.00;96309.25;5030561;28;104219;-64
2023/04/16 07:00:28;;;;;;;0.40;0.40;;;;;;;6.15;100.00;96307.63;5022074;28;101900;-64
2023/04/16 07:02:56;;;;;;;2.57;0.50;;;;;;;6.21;100.00;96314.69;5012630;28;102684;-64
2023/04/16 07:05:25;;;;;;;0.50;0.50;;;;;;;6.14;100.00;96306.84;5010219;28;105470;-64
2023/04/16 07:07:55;;;;;;;0.40;0.40;;;;;;;6.20;100.00;96316.50;5023217;28;101847;-64
2023/04/16 07:10:21;;;;;;;0.47;0.47;;;;;;;6.19;100.00;96319.34;5033769;28;102915;-64
2023/04/16 07:12:48;;;;;;;0.50;0.50;;;;;;;6.25;100.00;96311.34;5032349;27;101852;-64
2023/04/16 07:15:15;;;;;;;0.40;0.40;;;;;;;6.26;100.00;96312.16;5032366;27;102307;-64
2023/04/16 07:17:42;;;;;;;0.40;0.40;;;;;;;6.31;100.00;96315.72;5030072;27;102586;-64
2023/04/16 07:20:10;;;;;;;0.40;0.40;;;;;;;6.32;100.00;96319.19;5030583;28;101861;-64
2023/04/16 07:22:38;;;;;;;1.00;1.00;;;;;;;6.40;100.00;96311.75;5031942;27;102459;-64
2023/04/16 07:25:06;;;;;;;0.60;0.60;;;;;;;6.35;100.00;96322.19;5031409;28;102573;-64
2023/04/16 07:27:32;;;;;;;0.40;0.40;;;;;;;6.49;100.00;96325.44;5031983;27;101834;-64
2023/04/16 07:30:00;;;;;;;0.53;0.53;;;;;;;6.60;100.00;96316.72;5030586;28;102415;-64
2023/04/16 07:32:27;;;;;;;0.50;0.50;;;;;;;6.69;100.00;96325.91;5034661;27;101786;-66
2023/04/16 07:35:10;;;;;;;0.50;0.50;;;;;;;6.71;100.00;96319.38;5028073;27;102379;-64
2023/04/16 07:37:39;;;;;;;0.77;0.37;;;;;;;6.74;100.00;96326.03;5010092;28;105959;-64
2023/04/16 07:40:07;;;;;;;0.40;0.40;;;;;;;6.97;100.00;96326.06;5015723;28;101997;-64
2023/04/16 07:42:34;;;;;;;0.43;0.37;;;;;;;6.98;100.00;96330.34;5030432;28;104866;-64
2023/04/16 07:45:03;;;;;;;0.40;0.40;;;;;;;6.82;100.00;96331.00;5023366;28;105229;-64
2023/04/16 07:47:30;;;;;;;0.40;0.40;;;;;;;6.91;100.00;96329.63;5030570;28;101809;-64
2023/04/16 07:49:57;;;;;;;0.30;0.30;;;;;;;6.96;100.00;96327.91;5027192;28;102897;-64
2023/04/16 07:52:24;;;;;;;0.50;0.50;;;;;;;7.07;100.00;96335.03;5013135;28;105372;-64
2023/04/16 07:54:52;;;;;;;0.40;0.40;;;;;;;6.88;100.00;96330.09;5010342;28;105543;-64
2023/04/16 07:57:20;;;;;;;3.30;3.03;;;;;;;6.97;100.00;96334.81;5010049;28;104146;-64
2023/04/16 07:59:46;;;;;;;0.60;0.60;;;;;;;7.05;100.00;96341.59;5012311;28;101960;-64
2023/04/16 08:02:15;;;;;;;0.50;0.50;;;;;;;7.22;100.00;96334.59;5030332;28;105089;-64
2023/04/16 08:04:54;;;;;;;0.50;0.50;;;;;;;7.35;100.00;96336.97;5011007;28;104913;-64
2023/04/16 08:07:22;;;;;;;0.90;0.90;;;;;;;7.28;100.00;96341.59;5010362;28;101865;-64
2023/04/16 08:09:52;;;;;;;0.73;0.50;;;;;;;7.34;100.00;96340.66;5014196;28;105472;-64
2023/04/16 08:12:20;;;;;;;0.50;0.50;;;;;;;7.43;100.00;96342.75;5009557;28;104950;-64
2023/04/16 08:14:56;;;;;;;0.40;0.40;;;;;;;7.20;100.00;96347.25;5032044;28;101763;-64
2023/04/16 08:17:23;;;;;;;0.30;0.30;;;;;;;7.17;100.00;96356.44;5029357;28;105536;-64
2023/04/16 08:19:50;;;;;;;0.50;0.50;;;;;;;7.45;100.00;96353.09;5028055;28;101950;-64
2023/04/16 08:22:17;;;;;;;0.30;0.30;;;;;;;7.49;100.00;96344.47;5029495;28;104900;-64
2023/04/16 08:25:05;;;;;;;0.60;0.60;;;;;;;7.32;100.00;96350.69;5029140;28;105878;-63
2023/04/16 08:27:31;;;;;;;0.60;0.60;;;;;;;7.36;100.00;96357.13;5029102;28;101879;-64
2023/04/16 08:29:58;;;;;;;0.57;0.57;;;;;;;7.54;100.00;96357.00;5023286;28;105338;-64
2023/04/16 08:32:26;;;;;;;0.40;0.40;;;;;;;7.43;100.00;96365.75;5009140;28;105411;-64
2023/04/16 08:35:03;;;;;;;0.40;0.40;;;;;;;7.49;100.00;96364.81;5009774;28;102026;-64
2023/04/16 08:37:30;;;;;;;0.57;0.57;;;;;;;7.60;100.00;96366.66;5012521;28;104882;-64
2023/04/16 08:39:57;;;;;;;0.50;0.50;;;;;;;7.73;100.00;96366.38;5014630;28;101971;-63
2023/04/16 08:42:30;;;;;;;0.40;0.37;;;;;;;7.71;100.00;96368.47;5029816;28;104742;-64
2023/04/16 08:45:07;;;;;;;0.50;0.50;;;;;;;7.78;100.00;96363.84;5023796;28;104231;-64
2023/04/16 08:47:36;;;;;;;0.50;0.50;;;;;;;7.77;100.00;96362.25;5009537;28;101880;-64
2023/04/16 08:50:05;;;;;;;0.40;0.40;;;;;;;7.80;100.00;96367.09;5015373;28;105302;-64
2023/04/16 08:52:35;;;;;;;0.30;0.30;;;;;;;8.07;100.00;96366.31;5028790;28;105509;-63
2023/04/16 08:55:12;;;;;;;0.43;0.43;;;;;;;7.93;100.00;96367.63;5029240;28;101838;-64
2023/04/16 08:57:56;;;;;;;1.53;1.10;;;;;;;8.15;100.00;96357.19;5026829;28;105350;-64
2023/04/16 09:00:24;;;;;;;0.40;0.40;;;;;;;8.31;100.00;96362.59;5020745;28;105319;-64
2023/04/16 09:02:51;;;;;;;1.10;1.03;;;;;;;8.44;100.00;96362.28;5024844;28;105629;-63
2023/04/16 09:05:20;;;;;;;0.50;0.50;;;;;;;8.47;100.00;96368.97;5010062;28;102645;-63
2023/04/16 09:07:48;;;;;;;5.50;4.00;;;;;;;8.49;100.00;96369.53;5010533;28;101895;-63
2023/04/16 09:10:15;;;;;;;0.53;0.53;;;;;;;8.45;100.00;96365.75;5015904;28;103786;-63
2023/04/16 09:12:44;;;;;;;2.40;2.17;;;;;;;8.86;100.00;96373.38;5018021;28;104994;-64
2023/04/16 09:15:24;;;;;;;0.90;0.90;;;;;;;9.05;100.00;96372.91;5009152;28;101917;-63
2023/04/16 09:17:51;;;;;;;0.40;0.40;;;;;;;8.52;100.00;96380.47;5020231;28;105146;-63
2023/04/16 09:20:19;;;;;;;0.50;0.50;;;;;;;8.63;100.00;96376.97;5018653;28;105870;-63
2023/04/16 09:22:46;;;;;;;0.43;0.43;;;;;;;8.77;100.00;96372.97;5020215;28;102233;-63
2023/04/16 09:25:13;;;;;;;0.40;0.40;;;;;;;9.03;100.00;96369.69;5013775;28;105870;-63
2023/04/16 09:27:40;;;;;;;0.33;0.33;;;;;;;9.13;100.00;96392.91;5029206;28;101869;-63
2023/04/16 09:30:22;;;;;;;0.40;0.40;;;;;;;8.93;100.00;96369.53;5027792;28;103648;-63
2023/04/16 09:32:49;;;;;;;0.40;0.40;;;;;;;9.08;100.00;96376.91;5061789;27;105333;-63
2023/04/16 09:35:18;;;;;;;0.50;0.50;;;;;;;9.25;100.00;96372.41;5029511;27;101892;-63
2023/04/16 09:37:55;;;;;;;0.33;0.33;;;;;;;9.26;100.00;96374.03;5031332;27;102546;-63
2023/04/16 09:40:25;;;;;;;0.60;0.40;;;;;;;9.04;100.00;96371.28;5032565;27;102527;-63
2023/04/16 09:42:54;;;;;;;0.30;0.30;;;;;;;9.07;100.00;96378.78;5035287;28;102073;-63
2023/04/16 09:45:23;;;;;;;0.43;0.43;;;;;;;9.38;100.00;96380.84;5030967;28;104269;-63
2023/04/16 09:47:50;;;;;;;1.47;1.23;;;;;;;9.46;100.00;96375.13;5033191;27;101900;-63
2023/04/16 09:50:18;;;;;;;0.40;0.40;;;;;;;9.13;100.00;96374.34;5030005;28;102304;-63
2023/04/16 09:52:48;;;;;;;0.30;0.30;;;;;;;9.20;100.00;96369.69;5012867;28;103221;-63
2023/04/16 09:55:15;;;;;;;0.33;0.33;;;;;;;9.30;100.00;96372.50;5031377;28;103416;-63
2023/04/16 09:57:42;;;;;;;0.50;0.50;;;;;;;9.54;100.00;96371.28;5033609;28;102537;-63
2023/04/16 10:00:11;;;;;;;0.80;0.60;;;;;;;9.32;100.00;96373.06;5031305;28;105312;-64
2023/04/16 10:02:41;;;;;;;0.40;0.40;;;;;;;9.91;100.00;96373.09;5033092;28;101833;-63
2023/04/16 10:05:38;;;;;;;0.47;0.47;;;;;;;9.68;100.00;96369.84;5042490;27;104575;-63
2023/04/16 10:08:11;;;;;;;0.53;0.43;;;;;;;9.42;100.00;96378.50;5013625;28;102116;-63
2023/04/16 10:10:38;;;;;;;0.60;0.60;;;;;;;9.64;100.00;96374.88;5011978;28;105086;-63
2023/04/16 10:13:16;;;;;;;2.77;1.73;;;;;;;9.76;100.00;96380.06;5015877;28;102613;-63
2023/04/16 10:15:43;;;;;;;1.37;1.13;;;;;;;9.76;100.00;96374.75;5023922;28;101794;-63
2023/04/16 10:18:14;;;;;;;0.40;0.40;;;;;;;10.01;100.00;96383.88;5011581;28;105371;-63
2023/04/16 10:20:41;;;;;;;0.50;0.50;;;;;;;10.04;100.00;96382.59;5012790;28;102902;-63
2023/04/16 10:24:03;;;;;;;0.30;0.30;;;;;;;9.87;100.00;96381.81;5012328;28;101947;-63
2023/04/16 10:26:30;;;;;;;0.50;0.50;;;;;;;10.15;100.00;96373.69;5008649;28;102390;-63
2023/04/16 10:28:58;;;;;;;0.40;0.40;;;;;;;10.25;100.00;96374.63;5015674;28;105209;-64
2023/04/16 10:31:27;;;;;;;0.30;0.30;;;;;;;10.10;100.00;96378.97;5011815;28;105090;-63
2023/04/16 10:34:19;;;;;;;0.40;0.40;;;;;;;10.06;100.00;96380.50;5010895;28;105452;-63
2023/04/16 10:36:48;;;;;;;0.50;0.50;;;;;;;10.00;100.00;96378.78;4999643;28;101759;-63
2023/04/16 10:39:19;;;;;;;0.40;0.40;;;;;;;10.20;100.00;96371.88;5032237;27;102486;-64
2023/04/16 10:41:46;;;;;;;0.37;0.37;;;;;;;10.05;100.00;96373.56;5012269;28;105744;-64
2023/04/16 10:44:18;;;;;;;0.33;0.33;;;;;;;9.84;100.00;96383.13;5012818;28;101918;-63
2023/04/16 10:46:48;;;;;;;0.40;0.40;;;;;;;10.07;100.00;96380.25;5012819;28;102039;-63
2023/04/16 10:49:16;;;;;;;1.40;0.40;;;;;;;10.11;100.00;96380.56;5011394;28;103824;-64
2023/04/16 10:51:53;;;;;;;2.80;2.03;;;;;;;10.33;100.00;96374.19;5014751;28;102062;-64
2023/04/16 10:54:26;;;;;;;1.27;1.27;;;;;;;10.99;100.00;96371.13;5007611;28;105864;-63
2023/04/16 10:56:56;;;;;;;1.20;1.20;;;;;;;11.85;100.00;96375.25;4995658;28;101791;-63
2023/04/16 10:59:23;;;;;;;0.63;0.60;;;;;;;11.58;100.00;96375.31;5012546;28;102275;-64
2023/04/16 11:01:52;;;;;;;0.73;0.73;;;;;;;11.68;100.00;96370.09;5013056;28;102592;-64
2023/04/16 11:04:35;;;;;;;1.03;1.03;;;;;;;11.58;100.00;96382.50;5012552;28;101792;-64
2023/04/16 11:07:14;;;;;;;0.40;0.40;;;;;;;10.98;100.00;96390.81;5012657;28;102531;-63
2023/04/16 11:10:04;;;;;;;0.60;0.60;;;;;;;11.07;100.00;96372.53;5012009;28;102588;-64
2023/04/16 11:12:34;;;;;;;0.40;0.40;;;;;;;10.71;100.00;96384.69;5012436;28;101697;-63
2023/04/16 11:15:05;;;;;;;0.40;0.40;;;;;;;10.98;100.00;96380.19;5013859;28;106343;-64
2023/04/16 11:17:33;;;;;;;0.50;0.50;;;;;;;10.90;100.00;96385.16;5013570;28;101783;-63
2023/04/16 11:20:01;;;;;;;0.40;0.40;;;;;;;10.88;100.00;96392.56;5012453;28;102342;-64
2023/04/16 11:22:30;;;;;;;0.27;0.27;;;;;;;10.85;100.00;96383.22;5002915;28;103706;-64
2023/04/16 11:25:25;;;;;;;0.40;0.40;;;;;;;10.82;100.00;96391.72;5030233;27;102069;-64
2023/04/16 11:27:53;;;;;;;0.53;0.53;;;;;;;10.77;100.00;96390.84;5010872;28;106385;-67
2023/04/16 11:30:29;;;;;;;0.30;0.30;;;;;;;10.94;100.00;96389.72;5011400;28;105220;-65
2023/04/16 11:33:13;;;;;;;0.30;0.30;;;;;;;11.05;100.00;96379.94;5024588;28;102250;-64
2023/04/16 11:35:42;;;;;;;1.10;1.00;;;;;;;11.20;100.00;96383.56;5013770;28;105007;-65
2023/04/16 11:38:10;;;;;;;0.63;0.60;;;;;;;10.92;100.00;96386.50;5033424;28;104467;-65
2023/04/16 11:40:37;;;;;;;0.77;0.77;;;;;;;11.22;100.00;96383.28;5028970;28;105310;-65
2023/04/16 11:43:17;;;;;;;0.40;0.40;;;;;;;11.38;100.00;96385.00;5015334;28;103972;-65